Time;durP1;ratioP1;P1;durP2;ratioP2;P2;SDS_P1;SDS_P2;PMS_P1;PMS_P2;Temp;Humidity;BMP_temperature;BMP_pressure;BME280_temperature;BME280_humidity;BME280_pressure;Samples;Min_cycle;Max_cycle;Signal;HPM_P1;HPM_P2
2021/12/21 05:02:31;;;;;;;10.07;8.67;;;-0.60;99.90;;;;;;5025600;23;20514;-68
2021/12/21 05:04:58;;;;;;;20.50;9.13;;;-0.60;99.90;;;;;;4979281;28;20443;-68
2021/12/21 05:07:27;;;;;;;13.13;8.70;;;-0.60;99.90;;;;;;4979221;28;20454;-69
2021/12/21 05:09:57;;;;;;;14.87;9.63;;;-0.60;99.90;;;;;;4980078;28;20482;-68
2021/12/21 05:12:25;;;;;;;15.13;9.17;;;-0.70;99.90;;;;;;4982119;28;20513;-68
2021/12/21 05:14:52;;;;;;;9.97;8.90;;;-0.70;99.90;;;;;;4982372;28;20479;-69
2021/12/21 05:17:18;;;;;;;13.70;8.70;;;-0.70;99.90;;;;;;4980078;28;20462;-68
2021/12/21 05:19:46;;;;;;;12.20;9.73;;;-0.70;99.90;;;;;;4980138;28;20465;-68
2021/12/21 05:22:15;;;;;;;15.80;9.20;;;-0.70;99.90;;;;;;4979323;28;20482;-69
2021/12/21 05:24:42;;;;;;;21.80;9.40;;;-0.70;99.90;;;;;;4979498;28;20451;-68
2021/12/21 05:27:09;;;;;;;12.40;9.53;;;-0.70;99.90;;;;;;4978647;28;20494;-68
2021/12/21 05:29:36;;;;;;;17.57;9.13;;;-0.70;99.90;;;;;;4979208;28;20455;-67
2021/12/21 05:32:04;;;;;;;11.40;8.30;;;-0.80;99.90;;;;;;4979384;28;20485;-69
2021/12/21 05:34:31;;;;;;;12.30;9.23;;;-0.80;99.90;;;;;;4979109;28;20481;-69
2021/12/21 05:37:00;;;;;;;15.00;9.30;;;-0.80;99.90;;;;;;4979441;28;20465;-68
2021/12/21 05:39:38;;;;;;;14.57;9.63;;;-0.80;99.90;;;;;;4979079;28;20459;-68
2021/12/21 05:42:06;;;;;;;12.47;8.97;;;-0.80;99.90;;;;;;4978861;28;20533;-68
2021/12/21 05:44:33;;;;;;;14.40;9.73;;;-0.80;99.90;;;;;;4978941;28;20455;-67
2021/12/21 05:46:59;;;;;;;12.20;10.13;;;-0.90;99.90;;;;;;4978816;28;20458;-67
2021/12/21 05:49:26;;;;;;;13.37;8.60;;;-0.90;99.90;;;;;;4978877;28;20458;-67
2021/12/21 05:51:54;;;;;;;15.40;9.70;;;-0.90;99.90;;;;;;4978696;28;20479;-68
2021/12/21 05:54:22;;;;;;;15.10;9.90;;;-0.90;99.90;;;;;;4978217;28;20479;-67
2021/12/21 05:56:49;;;;;;;16.30;11.50;;;-1.00;99.90;;;;;;4977988;28;20923;-67
2021/12/21 05:59:15;;;;;;;15.57;8.87;;;-1.00;99.90;;;;;;4978126;28;20541;-67
2021/12/21 06:01:42;;;;;;;12.20;9.30;;;-1.20;99.90;;;;;;4977568;28;20486;-67
2021/12/21 06:04:09;;;;;;;17.33;9.67;;;-1.10;99.90;;;;;;4978170;28;20458;-67
2021/12/21 06:06:36;;;;;;;16.10;10.73;;;-1.10;99.90;;;;;;4978601;28;20459;-68
2021/12/21 06:09:07;;;;;;;13.60;10.00;;;-1.00;99.90;;;;;;4977960;28;20455;-67
2021/12/21 06:11:40;;;;;;;14.90;10.47;;;-0.70;99.90;;;;;;4977663;28;20483;-68
2021/12/21 06:14:37;;;;;;;18.07;10.80;;;-0.60;99.90;;;;;;4977812;28;20526;-67
2021/12/21 06:27:55;;;;;;;15.70;9.47;;;-0.70;99.90;;;;;;4977919;28;20563;-68
2021/12/21 06:30:22;;;;;;;11.43;9.00;;;-0.70;99.90;;;;;;4979535;28;20455;-69
2021/12/21 06:32:49;;;;;;;16.23;9.10;;;-0.80;99.90;;;;;;4977688;28;20458;-67
2021/12/21 06:35:17;;;;;;;15.33;10.00;;;-0.80;99.90;;;;;;4977238;28;20479;-69
2021/12/21 06:37:44;;;;;;;13.50;9.60;;;-0.90;99.90;;;;;;4978039;28;20459;-67
2021/12/21 06:40:13;;;;;;;11.70;9.00;;;-0.90;99.90;;;;;;4977312;28;20459;-67
2021/12/21 06:42:41;;;;;;;12.40;10.10;;;-1.00;99.90;;;;;;4977466;28;20459;-68
2021/12/21 06:45:24;;;;;;;13.87;9.63;;;-1.00;99.90;;;;;;4980377;28;20466;-68
2021/12/21 06:53:21;;;;;;;14.10;10.30;;;-1.20;99.90;;;;;;4977141;28;20781;-68
2021/12/21 06:55:47;;;;;;;14.73;9.77;;;-1.20;99.90;;;;;;4976781;28;20989;-67
2021/12/21 06:58:15;;;;;;;15.80;10.20;;;-1.30;99.90;;;;;;4977464;28;20458;-67
2021/12/21 07:00:44;;;;;;;12.03;9.10;;;-1.30;99.90;;;;;;4976599;28;20487;-67
2021/12/21 07:03:12;;;;;;;15.57;10.23;;;-1.30;99.90;;;;;;4977698;28;20466;-69
2021/12/21 07:05:40;;;;;;;12.57;8.63;;;-1.30;99.90;;;;;;4977260;28;20455;-69
2021/12/21 07:08:08;;;;;;;12.53;9.03;;;-1.20;99.90;;;;;;4977151;28;20456;-69
2021/12/21 07:10:38;;;;;;;11.90;9.23;;;-1.20;99.90;;;;;;4976843;28;20582;-68
2021/12/21 07:18:35;;;;;;;12.13;8.00;;;-1.20;99.90;;;;;;4977983;28;20427;-69
2021/12/21 07:21:03;;;;;;;10.27;9.17;;;-1.20;99.90;;;;;;4977101;28;20481;-68
2021/12/21 07:23:31;;;;;;;12.47;9.40;;;-1.20;99.90;;;;;;4976798;28;20995;-67
2021/12/21 07:25:58;;;;;;;13.03;9.27;;;-1.20;99.90;;;;;;4976423;28;20573;-69
2021/12/21 07:28:24;;;;;;;11.67;9.50;;;-1.10;99.90;;;;;;4976438;28;20462;-69
2021/12/21 07:30:52;;;;;;;10.07;9.07;;;-1.20;99.90;;;;;;4976790;28;20519;-69
2021/12/21 07:33:19;;;;;;;10.97;9.27;;;-1.10;99.90;;;;;;4976331;28;20462;-69
2021/12/21 07:35:47;;;;;;;13.43;9.10;;;-1.10;99.90;;;;;;4976236;28;20513;-68
2021/12/21 07:38:15;;;;;;;10.77;9.57;;;-1.10;99.90;;;;;;4977046;28;20459;-68
2021/12/21 07:40:41;;;;;;;12.53;8.70;;;-1.00;99.90;;;;;;4976376;28;20511;-68
2021/12/21 07:43:08;;;;;;;12.70;9.03;;;-1.00;99.90;;;;;;4976473;28;20479;-69
2021/12/21 07:45:35;;;;;;;11.27;8.47;;;-0.90;99.90;;;;;;4976253;28;20462;-69
2021/12/21 07:48:03;;;;;;;19.20;8.67;;;-0.90;99.90;;;;;;4976181;28;20477;-68
2021/12/21 07:50:30;;;;;;;12.20;8.27;;;-0.20;99.90;;;;;;4976622;28;20475;-69
2021/12/21 07:53:00;;;;;;;9.87;6.40;;;0.80;99.90;;;;;;4976095;28;20985;-69
2021/12/21 07:55:26;;;;;;;13.03;7.17;;;1.90;99.90;;;;;;4976026;28;20525;-69
2021/12/21 07:57:53;;;;;;;9.83;6.33;;;3.00;99.90;;;;;;4976398;28;20459;-68
2021/12/21 08:00:21;;;;;;;9.57;5.97;;;4.10;99.90;;;;;;4975564;28;20455;-68
2021/12/21 08:02:48;;;;;;;5.60;5.10;;;4.90;99.90;;;;;;4975795;28;20475;-69
2021/12/21 08:05:17;;;;;;;8.40;5.90;;;6.00;99.90;;;;;;4975440;28;20887;-69
2021/12/21 08:07:50;;;;;;;7.73;5.90;;;6.90;99.90;;;;;;4975982;28;20463;-68
2021/12/21 08:10:22;;;;;;;9.27;6.17;;;7.90;99.90;;;;;;4976006;28;20447;-69
2021/12/21 08:12:50;;;;;;;6.83;5.30;;;8.40;99.90;;;;;;4975192;28;20440;-69
2021/12/21 08:15:16;;;;;;;10.37;5.60;;;8.50;99.90;;;;;;4976124;28;20486;-69
2021/12/21 08:17:43;;;;;;;8.80;5.27;;;7.90;99.90;;;;;;4982703;28;20831;-69
2021/12/21 08:20:10;;;;;;;7.43;5.53;;;6.80;99.90;;;;;;4975814;28;20467;-68
2021/12/21 08:22:38;;;;;;;7.90;6.10;;;6.10;99.90;;;;;;4975638;28;20463;-69
2021/12/21 08:25:07;;;;;;;9.20;6.23;;;6.00;99.90;;;;;;4975752;28;20792;-69
2021/12/21 08:27:33;;;;;;;6.80;6.10;;;5.80;99.90;;;;;;4975743;28;20459;-68
2021/12/21 08:30:00;;;;;;;6.10;5.23;;;5.90;99.90;;;;;;4975884;28;20455;-69
2021/12/21 08:32:27;;;;;;;7.97;5.80;;;6.10;99.90;;;;;;4975335;28;20479;-69
2021/12/21 08:34:54;;;;;;;10.80;6.20;;;6.40;99.90;;;;;;4975572;28;20483;-69
2021/12/21 08:37:20;;;;;;;6.60;5.80;;;7.00;99.90;;;;;;4975559;28;20811;-69
2021/12/21 08:39:48;;;;;;;8.20;5.90;;;8.10;99.90;;;;;;4975784;28;20458;-69
2021/12/21 08:42:16;;;;;;;6.63;5.43;;;8.30;99.90;;;;;;4975620;28;20478;-69
2021/12/21 08:44:45;;;;;;;8.33;6.60;;;8.70;99.50;;;;;;4976350;28;20972;-69
2021/12/21 08:47:13;;;;;;;10.73;7.47;;;8.80;99.00;;;;;;4981895;28;20551;-69
2021/12/21 08:49:40;;;;;;;7.33;6.57;;;9.60;98.00;;;;;;4978698;28;20953;-68
2021/12/21 08:52:07;;;;;;;7.87;6.10;;;9.90;96.50;;;;;;4978561;28;20475;-68
2021/12/21 08:54:34;;;;;;;8.70;6.33;;;10.20;94.10;;;;;;4979035;28;20464;-69
2021/12/21 08:57:02;;;;;;;7.67;6.53;;;10.70;93.60;;;;;;4976154;28;20456;-69
2021/12/21 08:59:29;;;;;;;14.00;7.37;;;11.30;92.90;;;;;;4975824;28;20458;-70
2021/12/21 09:01:55;;;;;;;8.90;6.50;;;11.80;90.60;;;;;;4974899;28;20488;-68
2021/12/21 09:04:22;;;;;;;9.07;6.77;;;12.40;92.10;;;;;;4975975;28;20459;-68
2021/12/21 09:06:49;;;;;;;9.40;6.90;;;12.50;87.80;;;;;;4976919;28;20458;-68
2021/12/21 09:09:16;;;;;;;7.20;6.50;;;11.90;90.40;;;;;;4976328;28;20445;-69
2021/12/21 09:11:45;;;;;;;9.37;7.53;;;10.60;90.80;;;;;;4976527;28;20476;-69
2021/12/21 09:14:13;;;;;;;7.87;5.43;;;9.40;94.60;;;;;;4975835;28;20547;-69
2021/12/21 09:16:40;;;;;;;7.20;5.83;;;8.60;98.30;;;;;;4975200;28;21036;-68
2021/12/21 09:19:07;;;;;;;9.10;6.90;;;7.80;99.30;;;;;;4976540;28;20519;-70
2021/12/21 09:21:34;;;;;;;7.80;5.97;;;6.70;99.50;;;;;;4983437;28;20483;-69
2021/12/21 09:24:00;;;;;;;7.20;6.10;;;6.40;99.90;;;;;;4989822;28;20450;-68
2021/12/21 09:26:27;;;;;;;8.70;5.73;;;5.90;99.90;;;;;;4991493;28;20455;-69
2021/12/21 09:28:56;;;;;;;9.50;6.90;;;5.60;99.90;;;;;;4990394;28;20530;-69
2021/12/21 09:31:24;;;;;;;7.83;6.23;;;5.10;99.90;;;;;;4982846;28;20570;-68
2021/12/21 09:33:51;;;;;;;10.73;5.77;;;5.00;99.90;;;;;;4979017;28;20466;-68
2021/12/21 09:36:18;;;;;;;7.90;6.00;;;4.60;99.90;;;;;;4979351;28;20478;-69
2021/12/21 09:38:45;;;;;;;8.50;6.67;;;4.20;99.90;;;;;;4981343;28;20980;-68
2021/12/21 09:41:13;;;;;;;7.27;5.13;;;4.20;99.90;;;;;;4983070;28;20482;-69
2021/12/21 09:43:40;;;;;;;6.97;5.30;;;4.20;99.90;;;;;;4982384;28;20459;-68
2021/12/21 09:46:07;;;;;;;10.23;5.20;;;4.20;99.90;;;;;;4980777;28;20448;-68
2021/12/21 09:48:36;;;;;;;11.77;6.90;;;4.20;99.90;;;;;;4984808;28;20510;-68
2021/12/21 09:51:03;;;;;;;8.80;5.63;;;4.20;99.90;;;;;;4980969;28;20479;-68
2021/12/21 09:53:33;;;;;;;9.33;6.10;;;4.20;99.90;;;;;;4978849;28;20465;-68
2021/12/21 09:56:00;;;;;;;7.67;6.00;;;4.30;99.90;;;;;;4978569;28;20525;-68
2021/12/21 09:58:27;;;;;;;7.03;5.20;;;4.40;99.90;;;;;;4978534;28;20448;-69
2021/12/21 10:00:54;;;;;;;6.53;5.80;;;4.50;99.90;;;;;;4977902;28;20491;-68
2021/12/21 10:03:20;;;;;;;6.33;5.03;;;4.60;99.90;;;;;;4978366;28;20462;-68
2021/12/21 10:05:48;;;;;;;8.40;5.80;;;4.50;99.90;;;;;;4978501;28;20450;-69
2021/12/21 10:08:18;;;;;;;12.07;7.00;;;4.70;99.90;;;;;;4978225;28;20459;-68
2021/12/21 10:10:46;;;;;;;10.40;7.77;;;4.50;99.90;;;;;;4977883;28;20842;-69
2021/12/21 10:13:16;;;;;;;7.70;6.30;;;4.30;99.90;;;;;;4978073;28;20459;-68
2021/12/21 10:15:45;;;;;;;11.87;5.33;;;4.20;99.90;;;;;;4978386;28;20830;-68
2021/12/21 10:18:13;;;;;;;8.30;5.83;;;4.20;99.90;;;;;;4978297;28;20462;-69
2021/12/21 10:20:43;;;;;;;7.50;5.67;;;4.00;99.90;;;;;;4978314;28;20486;-68
2021/12/21 10:23:14;;;;;;;10.73;7.17;;;3.90;99.90;;;;;;4978087;28;20457;-69
2021/12/21 10:25:43;;;;;;;11.00;6.30;;;3.70;99.90;;;;;;4978196;28;20451;-69
2021/12/21 10:28:11;;;;;;;6.80;5.20;;;3.70;99.90;;;;;;4977867;28;20439;-67
2021/12/21 10:30:48;;;;;;;8.33;6.67;;;3.90;99.90;;;;;;4978563;28;20486;-68
2021/12/21 10:33:15;;;;;;;6.97;5.07;;;4.10;99.90;;;;;;4977632;28;20450;-68
2021/12/21 10:35:42;;;;;;;7.37;6.00;;;4.20;99.90;;;;;;4977224;28;20483;-68
2021/12/21 10:38:09;;;;;;;6.73;5.33;;;4.60;99.90;;;;;;4977745;28;20462;-69
2021/12/21 10:40:39;;;;;;;7.93;5.30;;;5.20;99.90;;;;;;4978143;28;20475;-68
2021/12/21 10:43:09;;;;;;;9.17;5.63;;;6.00;99.90;;;;;;4977898;28;20446;-68
2021/12/21 10:45:38;;;;;;;7.40;5.30;;;6.80;99.90;;;;;;4977537;28;20455;-70
2021/12/21 10:48:08;;;;;;;7.37;5.10;;;7.80;99.90;;;;;;4977679;28;20463;-68
2021/12/21 10:50:36;;;;;;;6.00;5.40;;;8.10;99.90;;;;;;4977570;28;20486;-68
2021/12/21 10:53:05;;;;;;;6.20;5.60;;;7.90;99.90;;;;;;4977635;28;20893;-68
2021/12/21 10:55:33;;;;;;;9.80;5.50;;;7.40;99.90;;;;;;4977454;28;20895;-70
2021/12/21 10:58:15;;;;;;;6.60;5.23;;;6.60;99.90;;;;;;4978245;28;20436;-68
2021/12/21 11:00:45;;;;;;;6.50;5.10;;;6.30;99.90;;;;;;4977086;28;20490;-68
2021/12/21 11:03:16;;;;;;;9.60;5.80;;;6.00;99.90;;;;;;4977607;28;20467;-69
2021/12/21 11:05:43;;;;;;;5.63;4.73;;;5.90;99.90;;;;;;4977255;28;20970;-69
2021/12/21 11:08:16;;;;;;;5.03;4.53;;;5.50;99.90;;;;;;4977214;28;20459;-69
2021/12/21 11:10:48;;;;;;;6.40;4.40;;;5.50;99.90;;;;;;4977227;28;21006;-70
2021/12/21 11:13:16;;;;;;;6.07;4.77;;;5.40;99.90;;;;;;4977303;28;20514;-69
2021/12/21 11:15:47;;;;;;;5.43;4.70;;;5.50;99.90;;;;;;4976706;28;20479;-70
2021/12/21 11:18:16;;;;;;;7.40;5.17;;;5.30;99.90;;;;;;4981957;28;20443;-70
2021/12/21 11:20:46;;;;;;;5.23;4.57;;;5.60;99.90;;;;;;4977390;28;20483;-69
2021/12/21 11:23:14;;;;;;;5.83;4.60;;;5.50;99.90;;;;;;4977054;28;20531;-69
2021/12/21 11:25:42;;;;;;;5.90;5.30;;;5.30;99.90;;;;;;4977015;28;20819;-69
2021/12/21 11:28:16;;;;;;;4.73;4.20;;;5.50;99.90;;;;;;4977055;28;20459;-69
2021/12/21 11:30:44;;;;;;;5.33;4.83;;;5.20;99.90;;;;;;4977212;28;20497;-69
2021/12/21 11:33:12;;;;;;;8.83;4.03;;;5.40;99.90;;;;;;4976842;28;20443;-69
2021/12/21 11:38:24;;;;;;;3.83;3.50;;;6.00;99.90;;;;;;4977543;28;20461;-70
2021/12/21 11:40:52;;;;;;;6.07;4.50;;;6.20;99.90;;;;;;4977657;28;20480;-71
2021/12/21 11:43:27;;;;;;;4.40;4.00;;;5.90;99.90;;;;;;4976983;28;20459;-71
2021/12/21 11:45:57;;;;;;;4.20;3.63;;;5.80;99.90;;;;;;4975892;28;20435;-71
2021/12/21 11:48:31;;;;;;;6.27;3.80;;;5.80;99.90;;;;;;4976658;28;20440;-70
2021/12/21 11:51:04;;;;;;;5.00;4.30;;;5.70;99.90;;;;;;4976544;28;20475;-71
2021/12/21 11:53:31;;;;;;;4.10;3.80;;;5.90;99.90;;;;;;4976402;28;20962;-70
2021/12/21 11:55:57;;;;;;;6.17;4.30;;;5.90;99.90;;;;;;4976339;28;20487;-71
2021/12/21 11:58:26;;;;;;;5.07;3.80;;;6.10;99.90;;;;;;4977148;28;20462;-70
2021/12/21 12:00:58;;;;;;;4.40;4.00;;;6.00;99.90;;;;;;4976571;28;20486;-68
2021/12/21 12:03:30;;;;;;;8.33;3.67;;;6.00;99.90;;;;;;4976088;28;20584;-70
2021/12/21 12:05:59;;;;;;;4.30;3.40;;;5.80;99.90;;;;;;4976114;28;20450;-69
2021/12/21 12:08:28;;;;;;;7.90;5.10;;;5.70;99.90;;;;;;4976117;28;20510;-68
2021/12/21 12:10:57;;;;;;;8.20;4.93;;;5.50;99.90;;;;;;4975848;28;20479;-65
2021/12/21 12:13:34;;;;;;;4.73;4.13;;;5.20;99.90;;;;;;4975931;28;20553;-66
2021/12/21 12:16:05;;;;;;;5.30;3.80;;;5.10;99.90;;;;;;4976505;28;20473;-69
2021/12/21 12:18:37;;;;;;;6.20;4.40;;;4.90;99.90;;;;;;4976531;28;20450;-65
2021/12/21 12:21:18;;;;;;;5.63;4.07;;;4.90;99.90;;;;;;4976210;28;20486;-65
2021/12/21 12:23:51;;;;;;;5.53;4.73;;;4.90;99.90;;;;;;4976294;28;20446;-65
2021/12/21 12:26:26;;;;;;;7.70;4.37;;;4.70;99.90;;;;;;4976184;28;20447;-69
2021/12/21 12:28:54;;;;;;;5.90;4.03;;;4.60;99.90;;;;;;4975913;28;20782;-69
2021/12/21 12:31:29;;;;;;;7.93;4.10;;;4.70;99.90;;;;;;4976053;28;20475;-70
2021/12/21 12:33:58;;;;;;;9.90;4.90;;;4.70;99.90;;;;;;4976352;28;20466;-68
2021/12/21 12:36:38;;;;;;;4.43;4.07;;;4.70;99.90;;;;;;4976017;28;20479;-69
2021/12/21 12:39:06;;;;;;;7.53;4.20;;;4.70;99.90;;;;;;4976079;28;20442;-68
2021/12/21 12:41:44;;;;;;;4.87;4.30;;;4.60;99.90;;;;;;4976294;28;20475;-68
2021/12/21 12:44:20;;;;;;;5.00;3.80;;;4.70;99.90;;;;;;4976075;28;20471;-68
2021/12/21 12:46:53;;;;;;;4.77;4.20;;;4.60;99.90;;;;;;4977259;28;20919;-64
2021/12/21 12:49:26;;;;;;;6.37;4.60;;;4.60;99.90;;;;;;4975929;28;20930;-66
2021/12/21 12:52:02;;;;;;;4.40;3.80;;;4.60;99.90;;;;;;4975476;28;20483;-67
2021/12/21 12:54:29;;;;;;;4.90;4.20;;;4.60;99.90;;;;;;4975724;28;20494;-67
2021/12/21 12:56:55;;;;;;;6.27;4.30;;;4.60;99.90;;;;;;4975538;28;20478;-67
2021/12/21 12:59:22;;;;;;;7.17;4.10;;;4.50;99.90;;;;;;4978278;28;20505;-67
2021/12/21 13:01:49;;;;;;;4.97;4.53;;;4.20;99.90;;;;;;4979034;28;20494;-67
2021/12/21 13:04:18;;;;;;;5.70;4.40;;;4.20;99.90;;;;;;4979154;28;20541;-67
2021/12/21 13:06:52;;;;;;;4.97;3.50;;;4.20;99.90;;;;;;4979051;28;20447;-67
2021/12/21 13:09:20;;;;;;;8.60;3.70;;;4.20;99.90;;;;;;4979168;28;20924;-67
2021/12/21 13:11:47;;;;;;;4.83;4.33;;;4.20;99.90;;;;;;4978744;28;21020;-68
2021/12/21 13:14:16;;;;;;;7.27;3.80;;;4.20;99.90;;;;;;4978469;28;20463;-68
2021/12/21 13:16:44;;;;;;;5.67;3.97;;;4.30;99.90;;;;;;4978526;28;20859;-69
2021/12/21 13:19:12;;;;;;;5.60;4.63;;;4.30;99.90;;;;;;4978859;28;20459;-69
2021/12/21 13:21:44;;;;;;;4.90;4.40;;;4.20;99.90;;;;;;4978440;28;20471;-69
2021/12/21 13:24:14;;;;;;;7.60;4.80;;;4.10;99.90;;;;;;4978756;28;20462;-69
2021/12/21 13:26:42;;;;;;;7.33;4.50;;;4.10;99.90;;;;;;4978984;28;20554;-67
2021/12/21 13:29:13;;;;;;;6.20;4.30;;;4.10;99.90;;;;;;4978801;28;20482;-67
2021/12/21 13:31:40;;;;;;;6.43;4.83;;;4.10;99.90;;;;;;4978527;28;20475;-66
2021/12/21 13:34:07;;;;;;;4.90;4.37;;;4.20;99.90;;;;;;4978343;28;20462;-66
2021/12/21 13:36:36;;;;;;;5.23;4.70;;;4.30;99.90;;;;;;4979052;28;20489;-67
2021/12/21 13:39:17;;;;;;;4.70;4.30;;;4.20;99.90;;;;;;4978276;28;20818;-67
2021/12/21 13:41:49;;;;;;;4.57;4.27;;;4.30;99.90;;;;;;4978223;28;20475;-67
2021/12/21 13:44:22;;;;;;;5.03;4.63;;;4.20;99.90;;;;;;4978797;28;20570;-68
2021/12/21 13:46:49;;;;;;;4.50;4.10;;;4.20;99.90;;;;;;4978387;28;20459;-67
2021/12/21 13:49:16;;;;;;;9.00;5.00;;;4.20;99.90;;;;;;4978464;28;20451;-68
2021/12/21 13:51:49;;;;;;;5.37;4.97;;;4.20;99.90;;;;;;4978450;28;20502;-68
2021/12/21 13:54:18;;;;;;;4.67;3.47;;;4.20;99.90;;;;;;4977766;28;20936;-67
2021/12/21 13:56:46;;;;;;;4.70;3.60;;;4.20;99.90;;;;;;4978285;28;20478;-68
2021/12/21 13:59:14;;;;;;;4.03;3.60;;;4.10;99.90;;;;;;4977954;28;20451;-67
2021/12/21 14:01:42;;;;;;;4.97;4.00;;;4.10;99.90;;;;;;4977439;28;20490;-67
2021/12/21 14:04:14;;;;;;;5.00;4.50;;;4.10;99.90;;;;;;4978068;28;20553;-67
2021/12/21 14:06:42;;;;;;;6.73;4.40;;;4.20;99.90;;;;;;4978017;28;20478;-67
2021/12/21 14:09:11;;;;;;;4.73;4.10;;;4.20;99.90;;;;;;4977089;28;20444;-67
2021/12/21 14:11:41;;;;;;;5.00;4.40;;;4.30;99.90;;;;;;4977427;28;20479;-69
2021/12/21 14:14:13;;;;;;;4.77;3.57;;;4.40;99.90;;;;;;4977810;28;20481;-68
2021/12/21 14:16:41;;;;;;;5.07;3.53;;;4.40;99.90;;;;;;4977705;28;20474;-68
2021/12/21 14:19:13;;;;;;;5.90;4.20;;;4.50;99.90;;;;;;4977706;28;20942;-69
2021/12/21 14:21:40;;;;;;;6.03;3.83;;;4.50;99.90;;;;;;4977166;28;20843;-68
2021/12/21 14:24:09;;;;;;;4.17;3.77;;;4.50;99.90;;;;;;4977387;28;20451;-68
2021/12/21 14:26:40;;;;;;;7.53;4.00;;;4.50;99.90;;;;;;4977376;28;20813;-67
2021/12/21 14:29:10;;;;;;;6.43;4.00;;;4.50;99.90;;;;;;4977726;28;20807;-68
2021/12/21 14:31:44;;;;;;;4.73;4.23;;;4.50;99.90;;;;;;4977079;28;21056;-68
2021/12/21 14:34:12;;;;;;;10.00;4.50;;;4.50;99.90;;;;;;4977777;28;20448;-68
2021/12/21 14:36:40;;;;;;;6.23;4.40;;;4.50;99.90;;;;;;4977676;28;20843;-68
2021/12/21 14:39:10;;;;;;;4.30;4.00;;;4.50;99.90;;;;;;4977350;28;20938;-68
2021/12/21 14:41:39;;;;;;;7.10;5.80;;;4.50;99.90;;;;;;4977253;28;20479;-68
2021/12/21 14:44:11;;;;;;;4.50;4.10;;;4.60;99.90;;;;;;4977453;28;20443;-68
2021/12/21 14:46:50;;;;;;;6.50;4.90;;;4.60;99.90;;;;;;4977382;28;20443;-68
2021/12/21 14:49:25;;;;;;;4.50;4.10;;;4.60;99.90;;;;;;4977826;28;20443;-68
2021/12/21 14:51:53;;;;;;;6.17;5.23;;;4.60;99.90;;;;;;4978113;28;20479;-66
2021/12/21 14:54:25;;;;;;;4.70;4.30;;;4.60;99.90;;;;;;4978069;28;20455;-67
2021/12/21 14:56:53;;;;;;;4.90;4.50;;;4.50;99.90;;;;;;4978279;28;20463;-67
2021/12/21 14:59:32;;;;;;;4.27;3.87;;;4.40;99.90;;;;;;4977559;28;20461;-68
2021/12/21 15:02:04;;;;;;;7.00;5.27;;;4.50;99.90;;;;;;4976802;28;20486;-69
2021/12/21 15:04:33;;;;;;;5.47;4.50;;;4.40;99.90;;;;;;4976918;28;20471;-70
2021/12/21 15:07:00;;;;;;;6.07;5.20;;;4.30;99.90;;;;;;4977455;28;20939;-70
2021/12/21 15:09:26;;;;;;;6.47;5.27;;;4.30;99.90;;;;;;4977978;28;20462;-70
2021/12/21 15:11:55;;;;;;;6.17;4.80;;;4.10;99.90;;;;;;4977241;28;20562;-70
2021/12/21 15:14:23;;;;;;;7.43;5.53;;;4.10;99.90;;;;;;4976984;28;20881;-70
2021/12/21 15:16:52;;;;;;;5.20;4.73;;;4.00;99.90;;;;;;4977301;28;20486;-70
2021/12/21 15:19:18;;;;;;;6.37;5.23;;;4.00;99.90;;;;;;4978200;28;20462;-70
2021/12/21 15:21:45;;;;;;;6.83;5.80;;;3.90;99.90;;;;;;4976554;28;20485;-70
2021/12/21 15:24:12;;;;;;;7.47;5.77;;;3.80;99.90;;;;;;4976874;28;20446;-71
2021/12/21 15:26:39;;;;;;;8.13;5.80;;;3.60;99.90;;;;;;4977369;28;20466;-70
2021/12/21 15:29:06;;;;;;;6.93;6.10;;;3.60;99.90;;;;;;4977360;28;20459;-70
2021/12/21 15:31:33;;;;;;;7.13;5.80;;;3.60;99.90;;;;;;4976846;28;20479;-70
2021/12/21 15:34:01;;;;;;;7.70;6.80;;;3.50;99.90;;;;;;4976856;28;20465;-70
2021/12/21 15:36:28;;;;;;;8.90;6.53;;;3.40;99.90;;;;;;4977564;28;20483;-69
2021/12/21 15:38:55;;;;;;;7.00;6.00;;;3.10;99.90;;;;;;4977191;28;20994;-70
2021/12/21 15:41:23;;;;;;;9.13;7.00;;;3.10;99.90;;;;;;4978833;28;20479;-70
2021/12/21 15:43:50;;;;;;;7.90;6.80;;;3.10;99.90;;;;;;4977043;28;20529;-70
2021/12/21 15:46:19;;;;;;;13.50;7.30;;;3.00;99.90;;;;;;4976960;28;20473;-70
2021/12/21 15:48:46;;;;;;;8.30;7.37;;;2.90;99.90;;;;;;4976468;28;20450;-70
2021/12/21 15:51:15;;;;;;;8.60;7.27;;;2.80;99.90;;;;;;4976662;28;20477;-70
2021/12/21 15:53:42;;;;;;;9.33;7.17;;;2.80;99.90;;;;;;4976229;28;20455;-70
2021/12/21 15:56:10;;;;;;;8.63;6.93;;;2.70;99.90;;;;;;4976743;28;20490;-70
2021/12/21 15:58:37;;;;;;;8.70;6.60;;;2.60;99.90;;;;;;4976518;28;20471;-70
2021/12/21 16:01:06;;;;;;;7.70;6.97;;;2.50;99.90;;;;;;4976241;28;20467;-70
2021/12/21 16:03:34;;;;;;;11.00;7.20;;;2.50;99.90;;;;;;4976267;28;20458;-71
2021/12/21 16:06:00;;;;;;;7.73;6.93;;;2.50;99.90;;;;;;4976323;28;20634;-70
2021/12/21 16:08:29;;;;;;;10.20;6.80;;;2.50;99.90;;;;;;4976164;28;20943;-71
2021/12/21 16:10:55;;;;;;;9.37;7.13;;;2.40;99.90;;;;;;4976231;28;20482;-70
2021/12/21 16:13:23;;;;;;;7.30;6.30;;;2.40;99.90;;;;;;4975952;28;20455;-69
2021/12/21 16:15:50;;;;;;;8.93;6.13;;;2.30;99.90;;;;;;4975983;28;20462;-70
2021/12/21 16:18:17;;;;;;;8.77;7.40;;;2.30;99.90;;;;;;4975841;28;20505;-69
2021/12/21 16:20:44;;;;;;;7.87;7.07;;;2.20;99.90;;;;;;4976488;28;21009;-70
2021/12/21 16:23:11;;;;;;;9.33;7.23;;;2.20;99.90;;;;;;4976050;28;20467;-70
2021/12/21 16:25:39;;;;;;;7.93;6.67;;;2.10;99.90;;;;;;4976257;28;20463;-70
2021/12/21 16:28:06;;;;;;;9.17;7.10;;;2.10;99.90;;;;;;4976280;28;20452;-69
2021/12/21 16:30:48;;;;;;;8.50;7.10;;;2.10;99.90;;;;;;4976035;28;20467;-70
2021/12/21 16:33:16;;;;;;;8.53;7.37;;;2.00;99.90;;;;;;4975371;28;20467;-71
2021/12/21 16:35:43;;;;;;;8.93;8.10;;;1.90;99.90;;;;;;4976478;28;20463;-70
2021/12/21 16:38:13;;;;;;;9.73;7.70;;;1.90;99.90;;;;;;4976350;28;20525;-70
2021/12/21 16:40:42;;;;;;;8.33;7.40;;;1.80;99.90;;;;;;4976665;28;20513;-70
2021/12/21 16:43:09;;;;;;;8.60;7.67;;;1.90;99.90;;;;;;4976644;28;20522;-70
2021/12/21 16:45:36;;;;;;;9.67;8.17;;;1.80;99.90;;;;;;4976082;28;20470;-71
2021/12/21 16:48:03;;;;;;;8.00;7.20;;;1.90;99.90;;;;;;4975905;28;20451;-70
2021/12/21 16:50:30;;;;;;;11.30;8.70;;;1.80;99.90;;;;;;4976082;28;20466;-70
2021/12/21 16:52:57;;;;;;;11.50;7.73;;;1.70;99.90;;;;;;4976040;28;20462;-70
2021/12/21 16:55:23;;;;;;;9.40;7.67;;;1.80;99.90;;;;;;4976026;28;20942;-70
2021/12/21 16:57:52;;;;;;;9.93;7.80;;;1.70;99.90;;;;;;4975859;28;20475;-70
2021/12/21 17:00:20;;;;;;;10.10;8.60;;;1.80;99.90;;;;;;4975724;28;20466;-69
2021/12/21 17:02:47;;;;;;;10.73;9.63;;;1.70;99.90;;;;;;4975427;28;20902;-70
2021/12/21 17:05:15;;;;;;;12.23;8.97;;;1.70;99.90;;;;;;4975864;28;20478;-71
2021/12/21 17:07:42;;;;;;;12.40;8.93;;;1.70;99.90;;;;;;4975154;28;20447;-70
2021/12/21 17:10:10;;;;;;;9.17;8.33;;;1.70;99.90;;;;;;4975794;28;20942;-70
2021/12/21 17:12:38;;;;;;;9.37;7.03;;;1.70;99.90;;;;;;4975324;28;20486;-69
2021/12/21 17:15:09;;;;;;;11.23;7.50;;;1.70;99.90;;;;;;4975750;28;20450;-71
2021/12/21 17:17:36;;;;;;;6.40;5.90;;;1.70;99.90;;;;;;4975536;28;20467;-69
2021/12/21 17:20:03;;;;;;;8.33;6.93;;;1.60;99.90;;;;;;4975053;28;20909;-70
2021/12/21 17:22:30;;;;;;;8.87;6.30;;;1.70;99.90;;;;;;4978427;28;20475;-71
2021/12/21 17:24:56;;;;;;;7.97;7.20;;;1.70;99.90;;;;;;4976414;28;20530;-71
2021/12/21 17:27:23;;;;;;;8.23;6.40;;;1.60;99.90;;;;;;4976313;28;20554;-69
2021/12/21 17:29:50;;;;;;;7.50;6.90;;;1.60;99.90;;;;;;4975819;28;20461;-71
2021/12/21 17:32:19;;;;;;;8.10;7.30;;;1.60;99.90;;;;;;4975294;28;20875;-70
2021/12/21 17:34:47;;;;;;;8.53;7.13;;;1.60;99.90;;;;;;4975299;28;20502;-70
2021/12/21 17:37:15;;;;;;;7.83;7.00;;;1.60;99.90;;;;;;4974903;28;20543;-69
2021/12/21 17:39:42;;;;;;;9.10;7.00;;;1.60;99.90;;;;;;4975303;28;20487;-69
2021/12/21 17:42:12;;;;;;;8.23;7.00;;;1.60;99.90;;;;;;4976106;28;20555;-70
2021/12/21 17:44:38;;;;;;;13.23;8.00;;;1.60;99.90;;;;;;4976742;28;20463;-70
2021/12/21 17:47:05;;;;;;;11.27;7.87;;;1.70;99.90;;;;;;4978593;28;20442;-69
2021/12/21 17:49:34;;;;;;;7.60;6.80;;;1.60;99.90;;;;;;4977991;28;20455;-71
2021/12/21 17:52:01;;;;;;;7.83;7.10;;;1.60;99.90;;;;;;4978023;28;20596;-71
2021/12/21 17:54:29;;;;;;;14.87;7.40;;;1.60;99.90;;;;;;4978131;28;20454;-69
2021/12/21 17:56:56;;;;;;;9.70;7.40;;;1.60;99.90;;;;;;4978543;28;20862;-70
2021/12/21 17:59:23;;;;;;;8.20;7.40;;;1.50;99.90;;;;;;4978335;28;20483;-72
2021/12/21 18:01:50;;;;;;;8.53;7.50;;;1.50;99.90;;;;;;4978136;28;20517;-70
2021/12/21 18:04:18;;;;;;;7.83;7.13;;;1.50;99.90;;;;;;4978467;28;20456;-71
2021/12/21 18:06:46;;;;;;;8.00;7.30;;;1.40;99.90;;;;;;4978934;28;20510;-70
2021/12/21 18:09:13;;;;;;;8.43;7.63;;;1.40;99.90;;;;;;4978535;28;20951;-70
2021/12/21 18:11:40;;;;;;;8.53;7.47;;;1.40;99.90;;;;;;4978701;28;20481;-70
2021/12/21 18:14:07;;;;;;;8.63;7.27;;;1.40;99.90;;;;;;4978881;28;20489;-70
2021/12/21 18:16:34;;;;;;;7.47;6.80;;;1.30;99.90;;;;;;4978742;28;20546;-70
2021/12/21 18:19:01;;;;;;;12.23;8.40;;;1.30;99.90;;;;;;4978816;28;20492;-71
2021/12/21 18:21:28;;;;;;;10.00;9.00;;;1.60;99.90;;;;;;4980751;28;20477;-70
2021/12/21 18:23:56;;;;;;;13.20;8.27;;;1.80;99.90;;;;;;4978948;28;20447;-71